Time;durP1;ratioP1;P1;durP2;ratioP2;P2;SDS_P1;SDS_P2;PMS_P1;PMS_P2;Temp;Humidity;BMP_temperature;BMP_pressure;BME280_temperature;BME280_humidity;BME280_pressure;Samples;Min_cycle;Max_cycle;Signal;HPM_P1;HPM_P2
2023/06/22 00:02:17;;;;;;;5.95;4.95;;;24.60;86.80;;;;;;5035532;28;20108;-77
2023/06/22 00:04:43;;;;;;;7.50;5.47;;;24.50;87.00;;;;;;5035707;28;20032;-76
2023/06/22 00:07:09;;;;;;;8.70;5.47;;;24.50;86.80;;;;;;5035412;28;20049;-76
2023/06/22 00:09:35;;;;;;;7.90;5.40;;;24.50;86.40;;;;;;5035273;28;20021;-76
2023/06/22 00:12:00;;;;;;;5.95;5.35;;;24.50;86.50;;;;;;5035288;28;20372;-77
2023/06/22 00:14:26;;;;;;;6.72;5.22;;;24.40;86.00;;;;;;5017125;28;20163;-76
2023/06/22 00:16:57;;;;;;;6.00;5.15;;;24.40;86.30;;;;;;5035147;28;20033;-77
2023/06/22 00:19:23;;;;;;;8.25;5.40;;;24.40;86.30;;;;;;5034861;28;20025;-77
2023/06/22 00:21:52;;;;;;;6.32;4.90;;;24.40;87.00;;;;;;5035187;28;20022;-77
2023/06/22 00:24:19;;;;;;;9.00;5.13;;;24.40;87.30;;;;;;5035272;28;20056;-76
2023/06/22 00:26:45;;;;;;;5.20;4.70;;;24.40;87.10;;;;;;5035052;28;20028;-76
2023/06/22 00:29:10;;;;;;;5.97;4.28;;;24.30;86.90;;;;;;5034789;28;20033;-77
2023/06/22 00:31:36;;;;;;;7.03;4.88;;;24.30;87.20;;;;;;5034876;28;20029;-77
2023/06/22 00:34:01;;;;;;;4.63;4.10;;;24.30;86.80;;;;;;5034883;28;20036;-76
2023/06/22 00:36:27;;;;;;;4.45;3.97;;;24.30;87.20;;;;;;5034608;28;20052;-77
2023/06/22 00:38:53;;;;;;;5.68;4.30;;;24.30;87.50;;;;;;5034644;28;20030;-76
2023/06/22 00:41:18;;;;;;;7.20;4.35;;;24.30;87.70;;;;;;5034552;28;20425;-76
2023/06/22 00:43:44;;;;;;;4.40;4.00;;;24.20;86.90;;;;;;5034458;28;20030;-76
2023/06/22 00:46:10;;;;;;;5.32;4.03;;;24.20;87.20;;;;;;5017251;28;20486;-76
2023/06/22 00:48:36;;;;;;;6.28;4.72;;;24.20;87.20;;;;;;5034378;28;20072;-76
2023/06/22 00:51:02;;;;;;;5.72;4.63;;;24.20;87.20;;;;;;5034493;28;20029;-76
2023/06/22 00:53:28;;;;;;;6.15;4.20;;;24.10;86.90;;;;;;5034387;28;20551;-76
2023/06/22 00:55:54;;;;;;;4.57;3.83;;;24.20;86.70;;;;;;5034302;28;20410;-76
2023/06/22 00:58:21;;;;;;;5.95;4.55;;;24.10;86.60;;;;;;5016409;28;20152;-76
2023/06/22 01:00:47;;;;;;;7.22;4.78;;;24.10;86.90;;;;;;5033384;28;20471;-76
2023/06/22 01:03:14;;;;;;;5.65;4.63;;;24.10;87.50;;;;;;5034216;28;20034;-75
2023/06/22 01:05:40;;;;;;;6.00;4.82;;;24.00;87.70;;;;;;5034111;28;20022;-77
2023/06/22 01:08:27;;;;;;;7.72;4.65;;;24.00;87.60;;;;;;5034352;28;20104;-77
2023/06/22 01:11:23;;;;;;;5.10;4.47;;;24.00;87.60;;;;;;5034131;28;20087;-77
2023/06/22 01:14:01;;;;;;;8.63;3.97;;;24.00;87.80;;;;;;5034145;28;20484;-77
2023/06/22 01:16:31;;;;;;;7.07;5.07;;;24.00;87.40;;;;;;5016336;28;20385;-77
2023/06/22 01:19:37;;;;;;;5.30;4.80;;;24.00;87.00;;;;;;5034308;28;20017;-77
2023/06/22 01:22:05;;;;;;;5.90;4.43;;;23.90;87.60;;;;;;5022669;28;20045;-77
2023/06/22 01:24:38;;;;;;;5.97;4.85;;;23.90;87.00;;;;;;5034274;28;20018;-77
2023/06/22 01:27:26;;;;;;;5.75;4.65;;;23.90;87.40;;;;;;5033813;28;20032;-77
2023/06/22 01:30:00;;;;;;;6.03;5.30;;;23.80;87.90;;;;;;5033926;28;20028;-77
2023/06/22 01:32:32;;;;;;;6.07;4.90;;;23.80;87.20;;;;;;5033668;28;20021;-76
2023/06/22 01:34:59;;;;;;;;;;;23.80;86.90;;;;;;5033923;28;20025;-76
2023/06/22 01:37:26;;;;;;;5.32;4.30;;;23.90;86.60;;;;;;5033722;28;19940;-77
2023/06/22 01:39:53;;;;;;;7.80;4.53;;;23.80;85.70;;;;;;5034356;28;20041;-77
2023/06/22 01:42:19;;;;;;;4.78;4.35;;;23.80;86.00;;;;;;5015644;28;20363;-76
2023/06/22 01:44:45;;;;;;;5.97;4.78;;;23.70;85.90;;;;;;5033909;28;20028;-78
2023/06/22 01:47:13;;;;;;;5.75;4.90;;;23.70;85.70;;;;;;5033833;28;20088;-77
2023/06/22 01:49:40;;;;;;;5.72;4.30;;;23.70;86.00;;;;;;5033537;28;20240;-77
2023/06/22 01:52:06;;;;;;;6.90;4.50;;;23.70;86.90;;;;;;5033742;28;20029;-76
2023/06/22 01:54:32;;;;;;;5.45;4.90;;;23.70;86.80;;;;;;5015945;28;20025;-76
2023/06/22 01:56:57;;;;;;;6.05;5.07;;;23.70;86.50;;;;;;5033595;28;20386;-77
2023/06/22 01:59:35;;;;;;;8.52;5.15;;;23.60;86.50;;;;;;5033354;28;20033;-80
2023/06/22 02:02:09;;;;;;;5.97;5.15;;;23.60;86.60;;;;;;5033441;28;20032;-76
2023/06/22 02:04:46;;;;;;;7.53;5.40;;;23.60;86.40;;;;;;5015504;28;20387;-77
2023/06/22 02:07:15;;;;;;;7.68;5.68;;;23.60;86.50;;;;;;5033463;28;20339;-76
2023/06/22 02:09:44;;;;;;;6.32;4.85;;;23.60;86.70;;;;;;5033512;28;20026;-76
2023/06/22 02:12:12;;;;;;;6.60;5.25;;;23.60;86.90;;;;;;5037716;28;20117;-76
2023/06/22 02:14:38;;;;;;;7.70;5.43;;;23.50;87.10;;;;;;5039957;28;20029;-76
2023/06/22 02:17:07;;;;;;;7.13;5.53;;;23.50;87.40;;;;;;5040044;28;20096;-76
2023/06/22 02:19:36;;;;;;;5.97;5.38;;;23.50;87.80;;;;;;5040018;28;20025;-76
2023/06/22 02:22:02;;;;;;;6.68;6.00;;;23.40;87.70;;;;;;5039863;28;20079;-76
2023/06/22 02:24:30;;;;;;;8.75;6.20;;;23.40;87.70;;;;;;5039633;28;20112;-76
2023/06/22 02:27:01;;;;;;;8.18;5.82;;;23.50;87.70;;;;;;5039766;28;20112;-76
2023/06/22 02:29:27;;;;;;;6.57;5.50;;;23.40;87.80;;;;;;5039976;28;20029;-76
2023/06/22 02:31:53;;;;;;;7.07;6.38;;;23.40;87.80;;;;;;5040075;28;20029;-76
2023/06/22 02:34:19;;;;;;;6.88;5.78;;;23.40;87.90;;;;;;5039913;28;20108;-76
2023/06/22 02:36:52;;;;;;;7.15;6.10;;;23.30;87.90;;;;;;5039773;28;20057;-76
2023/06/22 02:39:22;;;;;;;6.38;5.55;;;23.40;87.90;;;;;;5039394;28;20037;-76
2023/06/22 02:41:52;;;;;;;6.85;6.15;;;23.30;87.80;;;;;;5022109;28;20029;-76
2023/06/22 02:44:18;;;;;;;9.20;5.90;;;23.30;87.80;;;;;;5039379;28;20041;-75
2023/06/22 02:46:45;;;;;;;6.13;5.53;;;23.30;87.80;;;;;;5039525;28;20076;-75
2023/06/22 02:49:11;;;;;;;7.30;5.57;;;23.30;87.80;;;;;;5039367;28;20036;-74
2023/06/22 02:51:39;;;;;;;6.78;5.65;;;23.30;87.60;;;;;;5039221;28;20021;-75
2023/06/22 02:54:06;;;;;;;7.20;5.82;;;23.30;87.60;;;;;;5038980;28;20112;-75
2023/06/22 02:56:31;;;;;;;6.00;5.32;;;23.30;88.70;;;;;;5039412;28;20104;-75
2023/06/22 02:59:03;;;;;;;9.05;6.25;;;23.20;87.90;;;;;;5039438;28;20105;-75
2023/06/22 03:01:30;;;;;;;9.60;5.97;;;23.20;88.00;;;;;;5039400;28;20021;-75
2023/06/22 03:03:56;;;;;;;6.53;5.75;;;23.20;88.70;;;;;;5039161;28;20021;-77
2023/06/22 03:06:23;;;;;;;6.35;5.50;;;23.20;88.90;;;;;;5039462;28;20030;-76
2023/06/22 03:08:49;;;;;;;7.10;6.03;;;23.20;89.20;;;;;;5039068;28;20098;-76
2023/06/22 03:11:15;;;;;;;8.40;6.00;;;23.10;89.20;;;;;;5039261;28;20029;-77
2023/06/22 03:13:40;;;;;;;7.55;5.65;;;23.10;89.00;;;;;;5039311;28;20029;-76
2023/06/22 03:16:06;;;;;;;6.40;5.60;;;23.10;89.10;;;;;;5039524;28;20390;-77
2023/06/22 03:18:32;;;;;;;5.90;5.22;;;23.10;89.40;;;;;;5039210;28;20087;-76
2023/06/22 03:20:57;;;;;;;6.25;5.53;;;23.10;89.20;;;;;;5039339;28;20056;-76
2023/06/22 03:23:23;;;;;;;5.93;5.32;;;23.10;89.50;;;;;;5036047;28;20364;-76
2023/06/22 03:25:48;;;;;;;8.18;4.82;;;23.10;89.40;;;;;;5036101;28;20025;-76
2023/06/22 03:28:14;;;;;;;11.25;5.88;;;23.00;89.20;;;;;;5018387;28;20030;-77
2023/06/22 03:30:39;;;;;;;7.43;5.88;;;23.00;89.10;;;;;;5036087;28;20025;-76
2023/06/22 03:33:05;;;;;;;5.90;5.30;;;23.00;89.00;;;;;;5036239;28;20109;-76
2023/06/22 03:35:31;;;;;;;6.20;5.30;;;23.00;89.10;;;;;;5036054;28;20454;-76
2023/06/22 03:37:56;;;;;;;6.13;5.28;;;23.00;89.00;;;;;;5035885;28;20470;-76
2023/06/22 03:40:22;;;;;;;6.25;5.57;;;22.90;89.00;;;;;;5036175;28;20101;-76
2023/06/22 03:42:47;;;;;;;7.35;5.57;;;23.00;89.30;;;;;;5035945;28;20045;-76
2023/06/22 03:45:13;;;;;;;6.07;4.90;;;22.90;89.30;;;;;;5036094;28;20545;-76
2023/06/22 03:47:39;;;;;;;6.70;5.70;;;22.90;89.50;;;;;;5035774;28;20491;-76
2023/06/22 03:50:05;;;;;;;12.38;5.53;;;22.90;89.60;;;;;;5035661;28;20021;-76
2023/06/22 03:52:31;;;;;;;7.07;4.80;;;22.90;89.50;;;;;;5035620;28;20371;-76
2023/06/22 03:54:57;;;;;;;6.13;4.88;;;22.90;89.40;;;;;;5034042;28;20481;-76
2023/06/22 03:57:22;;;;;;;6.38;5.38;;;22.80;89.30;;;;;;5035333;28;20067;-76
2023/06/22 03:59:48;;;;;;;6.82;5.78;;;22.80;89.60;;;;;;5035262;28;20022;-76
2023/06/22 04:02:13;;;;;;;6.55;5.22;;;22.80;89.90;;;;;;5035611;28;20036;-76
2023/06/22 04:04:39;;;;;;;6.80;5.47;;;22.80;90.10;;;;;;5035573;28;20463;-76
2023/06/22 04:07:05;;;;;;;6.35;5.68;;;22.80;90.20;;;;;;5035667;28;20489;-76
2023/06/22 04:09:31;;;;;;;7.32;6.25;;;22.80;90.10;;;;;;5035381;28;20033;-76
2023/06/22 04:11:56;;;;;;;6.80;5.70;;;22.70;90.10;;;;;;5035514;28;20026;-76
2023/06/22 04:14:22;;;;;;;7.38;5.88;;;22.80;90.30;;;;;;5035422;28;20025;-77
2023/06/22 04:16:47;;;;;;;12.23;5.55;;;22.70;90.30;;;;;;5035455;28;20009;-76
2023/06/22 04:19:16;;;;;;;7.07;6.25;;;22.70;90.40;;;;;;5034238;28;20366;-77
2023/06/22 04:21:44;;;;;;;6.53;5.60;;;22.70;90.30;;;;;;5034567;28;20482;-77
2023/06/22 04:24:10;;;;;;;7.78;6.22;;;22.70;90.20;;;;;;5033549;28;20028;-76
2023/06/22 04:26:36;;;;;;;7.43;5.50;;;22.70;90.40;;;;;;5034284;28;20028;-77
2023/06/22 04:29:05;;;;;;;7.63;5.65;;;22.70;90.20;;;;;;5035008;28;20029;-76
2023/06/22 04:31:32;;;;;;;6.72;6.07;;;22.70;90.50;;;;;;5034918;28;20021;-77
2023/06/22 04:34:05;;;;;;;8.25;6.38;;;22.70;90.50;;;;;;5034583;28;20037;-77
2023/06/22 04:36:41;;;;;;;15.70;7.32;;;22.70;90.50;;;;;;5034214;28;20100;-75
2023/06/22 04:39:09;;;;;;;13.07;6.97;;;22.70;90.70;;;;;;5034748;28;20018;-75
2023/06/22 04:41:42;;;;;;;9.73;6.93;;;22.70;90.40;;;;;;5034373;28;20032;-75
2023/06/22 04:44:23;;;;;;;10.40;7.20;;;22.70;90.30;;;;;;5034603;28;20104;-75
2023/06/22 04:46:54;;;;;;;10.73;7.00;;;22.70;90.20;;;;;;5034217;28;20021;-75
2023/06/22 04:49:21;;;;;;;11.80;8.10;;;22.70;90.30;;;;;;5034540;28;20394;-75
2023/06/22 04:51:47;;;;;;;9.45;6.88;;;22.70;90.20;;;;;;5033974;28;20014;-75
2023/06/22 04:54:13;;;;;;;20.13;8.80;;;22.70;90.30;;;;;;5034297;28;20029;-76
2023/06/22 04:56:40;;;;;;;10.52;7.20;;;22.70;90.30;;;;;;5016415;28;20031;-75
2023/06/22 04:59:06;;;;;;;14.10;7.65;;;22.80;90.40;;;;;;5034457;28;20021;-75
2023/06/22 05:01:32;;;;;;;12.93;7.97;;;22.70;90.50;;;;;;5034130;28;20021;-75
2023/06/22 05:04:00;;;;;;;22.40;9.27;;;22.80;90.50;;;;;;5034201;28;20052;-75
2023/06/22 05:06:26;;;;;;;12.98;8.70;;;22.70;90.50;;;;;;5033533;28;20026;-75
2023/06/22 05:08:57;;;;;;;20.13;9.00;;;22.70;90.60;;;;;;5033752;28;20106;-75
2023/06/22 05:11:26;;;;;;;12.45;8.00;;;22.80;90.60;;;;;;5034039;28;20034;-76
2023/06/22 05:13:53;;;;;;;10.57;7.95;;;22.80;90.70;;;;;;5034043;28;20495;-76
2023/06/22 05:16:26;;;;;;;11.82;8.05;;;22.80;90.80;;;;;;5034119;28;20026;-76
2023/06/22 05:18:53;;;;;;;9.63;8.30;;;22.80;90.80;;;;;;5033729;28;20032;-76
2023/06/22 05:21:26;;;;;;;11.57;8.52;;;22.80;90.80;;;;;;5033701;28;20538;-75
2023/06/22 05:23:53;;;;;;;10.27;8.25;;;22.80;90.90;;;;;;5033713;28;20025;-75
2023/06/22 05:26:19;;;;;;;11.75;9.27;;;22.80;91.00;;;;;;5030734;28;20199;-75
2023/06/22 05:28:45;;;;;;;13.20;9.10;;;22.80;91.00;;;;;;5029108;28;20033;-75
2023/06/22 05:31:13;;;;;;;10.88;9.07;;;22.80;91.00;;;;;;5032450;28;20064;-75
2023/06/22 05:33:39;;;;;;;10.48;8.98;;;22.80;91.10;;;;;;5032934;28;20033;-76
2023/06/22 05:36:05;;;;;;;12.93;9.40;;;22.80;91.10;;;;;;5033047;28;20102;-75
2023/06/22 05:38:30;;;;;;;13.63;9.40;;;22.80;91.20;;;;;;5031449;28;20335;-75
2023/06/22 05:40:56;;;;;;;12.35;9.60;;;22.80;91.20;;;;;;5013625;28;20120;-75
2023/06/22 05:43:22;;;;;;;15.57;9.55;;;22.80;91.20;;;;;;5032701;28;20037;-73
2023/06/22 05:45:47;;;;;;;14.20;9.52;;;22.80;91.50;;;;;;5030238;28;20029;-73
2023/06/22 05:48:13;;;;;;;14.93;10.45;;;22.70;91.70;;;;;;5031166;28;20041;-77
2023/06/22 05:50:39;;;;;;;14.10;9.82;;;22.70;91.80;;;;;;5010845;28;20040;-74
2023/06/22 05:53:06;;;;;;;11.95;10.07;;;22.70;92.00;;;;;;5031530;28;20038;-75
2023/06/22 05:55:32;;;;;;;15.07;11.07;;;22.70;92.00;;;;;;5029103;28;20097;-77
2023/06/22 05:57:58;;;;;;;14.70;11.35;;;22.70;92.00;;;;;;5031758;28;20474;-76
2023/06/22 06:00:24;;;;;;;13.73;11.35;;;22.70;92.00;;;;;;5009958;28;20036;-77
2023/06/22 06:02:50;;;;;;;14.48;11.27;;;22.70;92.10;;;;;;5027167;28;20411;-75
2023/06/22 06:05:16;;;;;;;13.35;11.13;;;22.70;92.20;;;;;;5028641;28;20548;-75
2023/06/22 06:07:42;;;;;;;14.10;11.93;;;22.70;92.10;;;;;;5012611;28;20029;-76
2023/06/22 06:10:08;;;;;;;14.88;12.35;;;22.80;92.10;;;;;;5026632;28;20018;-77
2023/06/22 06:12:34;;;;;;;15.18;11.43;;;22.80;92.20;;;;;;5030339;28;20102;-78
2023/06/22 06:15:00;;;;;;;16.88;12.45;;;22.80;92.30;;;;;;5030226;28;20391;-76
2023/06/22 06:17:25;;;;;;;15.65;12.98;;;22.80;92.20;;;;;;5023672;28;20034;-76
2023/06/22 06:19:51;;;;;;;41.55;17.50;;;22.90;92.30;;;;;;5026988;28;20017;-76
2023/06/22 06:22:18;;;;;;;27.13;15.23;;;22.80;92.30;;;;;;5028030;28;20474;-76
2023/06/22 06:24:44;;;;;;;14.15;12.43;;;22.90;92.40;;;;;;5031563;28;20390;-77
2023/06/22 06:27:09;;;;;;;14.43;13.02;;;22.90;92.40;;;;;;5032989;28;20458;-77
2023/06/22 06:29:35;;;;;;;25.05;14.50;;;23.00;92.40;;;;;;5030678;28;20029;-78
2023/06/22 06:32:00;;;;;;;68.95;23.67;;;22.90;92.40;;;;;;5031167;28;20021;-78
2023/06/22 06:34:26;;;;;;;40.78;17.05;;;22.90;92.60;;;;;;5030523;28;20037;-78
2023/06/22 06:36:51;;;;;;;18.13;14.13;;;22.90;92.60;;;;;;5032065;28;21484;-77
2023/06/22 06:39:17;;;;;;;37.10;16.90;;;22.90;92.70;;;;;;5030559;28;20359;-79
2023/06/22 06:41:43;;;;;;;33.50;15.43;;;23.00;92.70;;;;;;5031480;28;20154;-76
2023/06/22 06:44:08;;;;;;;23.83;15.50;;;23.00;92.90;;;;;;5029150;28;20512;-79
2023/06/22 06:46:34;;;;;;;23.10;14.15;;;23.00;92.90;;;;;;5024653;28;20037;-77
2023/06/22 06:48:59;;;;;;;39.63;17.38;;;23.00;93.00;;;;;;5028270;28;20034;-78
2023/06/22 06:51:25;;;;;;;32.28;17.67;;;23.00;93.10;;;;;;5031411;28;20041;-78
2023/06/22 06:53:50;;;;;;;20.25;14.35;;;23.00;93.00;;;;;;5030846;28;20033;-78
2023/06/22 06:56:16;;;;;;;24.52;14.50;;;23.00;93.10;;;;;;5029369;28;20032;-78
2023/06/22 06:58:42;;;;;;;17.15;14.55;;;23.10;93.10;;;;;;5033035;28;20029;-77
2023/06/22 07:01:08;;;;;;;16.17;13.25;;;23.10;93.20;;;;;;5031970;28;20029;-78
2023/06/22 07:03:34;;;;;;;16.95;14.70;;;23.10;93.30;;;;;;5032501;28;20025;-77
2023/06/22 07:06:00;;;;;;;22.13;14.07;;;23.10;93.50;;;;;;5033346;28;20485;-78
2023/06/22 07:08:26;;;;;;;26.67;14.52;;;23.10;93.50;;;;;;5035448;28;20057;-77
2023/06/22 07:10:52;;;;;;;17.48;14.80;;;23.10;93.70;;;;;;5030924;28;20063;-75
2023/06/22 07:13:18;;;;;;;15.32;13.85;;;23.10;93.80;;;;;;5033678;28;20038;-75
2023/06/22 07:15:43;;;;;;;18.27;15.38;;;23.10;93.80;;;;;;5032687;28;21175;-76
2023/06/22 07:18:09;;;;;;;16.63;14.20;;;23.10;93.90;;;;;;5012651;28;20099;-75
2023/06/22 07:20:34;;;;;;;22.30;16.05;;;23.20;94.00;;;;;;5029881;28;20018;-70
2023/06/22 07:23:00;;;;;;;17.67;14.02;;;23.20;94.10;;;;;;5029065;28;20168;-77
2023/06/22 07:25:26;;;;;;;17.30;15.18;;;23.20;94.20;;;;;;5013069;28;20501;-76
2023/06/22 07:28:04;;;;;;;15.63;12.27;;;23.20;94.20;;;;;;5031664;28;20038;-72
2023/06/22 07:30:31;;;;;;;18.55;16.60;;;23.20;94.00;;;;;;5014684;28;20030;-74
2023/06/22 07:32:58;;;;;;;16.13;14.43;;;23.20;93.90;;;;;;5028081;28;20029;-74
2023/06/22 07:35:24;;;;;;;16.05;14.00;;;23.20;93.80;;;;;;5032887;28;20115;-72
2023/06/22 07:37:50;;;;;;;19.88;14.70;;;23.20;93.50;;;;;;5034562;28;20072;-73
2023/06/22 07:40:15;;;;;;;18.13;15.13;;;23.30;93.60;;;;;;5033945;28;20425;-73
2023/06/22 07:42:41;;;;;;;17.35;15.07;;;23.30;93.70;;;;;;5033433;28;20105;-73
2023/06/22 07:45:08;;;;;;;17.88;14.32;;;23.30;93.70;;;;;;5029181;28;20049;-72
2023/06/22 07:47:35;;;;;;;15.80;13.18;;;23.30;93.50;;;;;;5031829;28;20073;-73
2023/06/22 07:50:01;;;;;;;13.52;12.32;;;23.30;93.00;;;;;;5030400;28;20056;-73
2023/06/22 07:52:28;;;;;;;17.13;11.93;;;23.30;92.70;;;;;;5028378;28;20079;-72
2023/06/22 07:54:53;;;;;;;13.10;11.38;;;23.30;92.50;;;;;;5025246;28;20030;-73
2023/06/22 07:57:20;;;;;;;11.38;9.65;;;23.30;92.50;;;;;;5029039;28;20037;-71
2023/06/22 07:59:45;;;;;;;13.10;9.98;;;23.30;92.50;;;;;;5030753;28;20021;-70
2023/06/22 08:02:12;;;;;;;13.93;9.45;;;23.40;92.60;;;;;;5032182;28;20132;-70
2023/06/22 08:04:37;;;;;;;10.95;9.85;;;23.40;92.50;;;;;;5029183;28;20022;-72
2023/06/22 08:07:04;;;;;;;11.10;9.27;;;23.40;92.50;;;;;;5029980;28;20025;-70
2023/06/22 08:09:32;;;;;;;12.77;10.30;;;23.40;92.40;;;;;;5029767;28;20505;-71
2023/06/22 08:11:58;;;;;;;12.57;10.00;;;23.40;92.20;;;;;;5032991;28;20486;-72
2023/06/22 08:14:29;;;;;;;11.05;9.75;;;23.40;92.10;;;;;;5033006;28;20029;-73
2023/06/22 08:16:54;;;;;;;15.60;11.90;;;23.50;92.20;;;;;;5033357;28;20030;-69
2023/06/22 08:19:20;;;;;;;12.15;10.52;;;23.50;92.20;;;;;;5032389;28;20029;-72
2023/06/22 08:21:46;;;;;;;15.00;11.18;;;23.40;92.20;;;;;;5032927;28;20113;-72
2023/06/22 08:24:12;;;;;;;12.32;11.20;;;23.50;92.30;;;;;;5031658;28;20359;-72
2023/06/22 08:26:38;;;;;;;17.35;12.10;;;23.50;92.30;;;;;;5029740;28;20036;-67
2023/06/22 08:29:04;;;;;;;16.13;12.07;;;23.50;92.30;;;;;;5030489;28;20041;-69
2023/06/22 08:31:31;;;;;;;13.45;12.15;;;23.50;92.40;;;;;;5031312;28;20024;-73
2023/06/22 08:33:57;;;;;;;12.65;11.23;;;23.50;92.50;;;;;;5031830;28;20051;-69
2023/06/22 08:36:23;;;;;;;13.93;12.38;;;23.50;92.50;;;;;;5031306;28;20382;-69
2023/06/22 08:38:51;;;;;;;12.68;11.35;;;23.60;92.50;;;;;;5030554;28;20036;-69
2023/06/22 08:41:17;;;;;;;12.05;10.25;;;23.50;92.60;;;;;;5028881;28;20482;-70
2023/06/22 08:43:44;;;;;;;11.38;10.27;;;23.50;92.60;;;;;;5031019;28;20022;-70
2023/06/22 08:46:10;;;;;;;17.17;13.25;;;23.50;92.50;;;;;;5032771;28;20017;-68
2023/06/22 08:48:36;;;;;;;13.38;12.07;;;23.60;92.80;;;;;;5032607;28;20046;-67
2023/06/22 08:51:02;;;;;;;13.13;11.90;;;23.60;93.00;;;;;;5014165;28;20068;-68
2023/06/22 08:53:28;;;;;;;13.50;12.02;;;23.60;93.00;;;;;;5027107;28;20022;-71
2023/06/22 08:55:53;;;;;;;12.70;11.50;;;23.60;93.20;;;;;;5032701;28;20453;-69
2023/06/22 08:58:21;;;;;;;15.68;12.60;;;23.60;93.30;;;;;;5031782;28;20021;-70
2023/06/22 09:00:47;;;;;;;16.08;11.68;;;23.60;93.30;;;;;;5032196;28;20029;-69
2023/06/22 09:03:13;;;;;;;14.02;12.32;;;23.60;93.40;;;;;;5031630;28;20029;-69
2023/06/22 09:05:39;;;;;;;15.27;12.43;;;23.70;93.40;;;;;;5031007;28;20057;-69
2023/06/22 09:08:04;;;;;;;18.67;11.80;;;23.70;93.20;;;;;;5027564;28;20096;-72
2023/06/22 09:10:30;;;;;;;13.88;12.10;;;23.60;93.20;;;;;;5013586;28;20087;-69
2023/06/22 09:12:57;;;;;;;14.45;12.38;;;23.70;93.20;;;;;;5029229;28;20033;-74
2023/06/22 09:15:22;;;;;;;13.50;12.15;;;23.60;93.10;;;;;;5018627;28;20029;-69
2023/06/22 09:17:48;;;;;;;13.90;12.50;;;23.70;93.10;;;;;;5009636;28;20041;-73
2023/06/22 09:20:15;;;;;;;16.20;11.18;;;23.70;92.90;;;;;;5024084;28;20030;-71
2023/06/22 09:22:41;;;;;;;14.15;11.73;;;23.70;93.00;;;;;;5027115;28;20467;-64
2023/06/22 09:25:07;;;;;;;17.35;11.35;;;23.70;93.00;;;;;;5023642;28;20037;-64
2023/06/22 09:27:33;;;;;;;15.32;13.05;;;23.70;93.60;;;;;;5028092;28;20083;-66
2023/06/22 09:29:59;;;;;;;17.35;12.48;;;23.70;93.00;;;;;;5028379;28;20476;-65
2023/06/22 09:32:25;;;;;;;16.95;10.68;;;23.70;92.90;;;;;;5030046;28;20044;-75
2023/06/22 09:34:51;;;;;;;21.23;9.70;;;23.70;92.90;;;;;;5019756;28;20051;-65
2023/06/22 09:37:17;;;;;;;16.30;8.25;;;23.70;92.90;;;;;;5030302;28;20026;-67
2023/06/22 09:39:43;;;;;;;15.10;10.93;;;23.70;92.90;;;;;;5029567;28;20037;-69
2023/06/22 09:42:08;;;;;;;12.65;11.07;;;23.70;93.00;;;;;;5029952;28;20032;-76
2023/06/22 09:44:34;;;;;;;12.98;10.85;;;23.70;93.80;;;;;;5028366;28;20095;-76
2023/06/22 09:47:00;;;;;;;15.30;12.65;;;23.80;94.60;;;;;;5030636;28;20057;-69
2023/06/22 09:49:26;;;;;;;15.90;12.95;;;23.80;94.00;;;;;;5027949;28;20057;-72
2023/06/22 09:51:52;;;;;;;16.23;11.50;;;23.80;93.90;;;;;;5029382;28;20490;-69
2023/06/22 09:54:18;;;;;;;11.88;10.35;;;23.70;94.20;;;;;;5028092;28;20032;-69
2023/06/22 09:56:43;;;;;;;14.38;12.30;;;23.80;94.30;;;;;;5025062;28;20025;-69
2023/06/22 09:59:09;;;;;;;11.45;8.82;;;23.80;94.20;;;;;;5024457;28;20036;-69
2023/06/22 10:01:35;;;;;;;10.30;8.02;;;23.80;94.00;;;;;;5028301;28;20068;-67
2023/06/22 10:04:01;;;;;;;9.75;8.45;;;23.80;93.90;;;;;;5023024;28;20383;-69
2023/06/22 10:06:27;;;;;;;12.23;10.95;;;23.80;94.30;;;;;;5008408;28;20402;-69
2023/06/22 10:08:52;;;;;;;12.30;10.02;;;23.80;94.60;;;;;;5022937;28;20038;-68
2023/06/22 10:11:18;;;;;;;13.13;10.38;;;23.80;94.30;;;;;;5030426;28;20087;-68
2023/06/22 10:13:44;;;;;;;12.77;10.73;;;23.80;94.20;;;;;;5022923;28;20040;-68
2023/06/22 10:16:09;;;;;;;10.60;9.63;;;23.80;94.10;;;;;;5028544;28;20044;-68
2023/06/22 10:18:35;;;;;;;11.88;9.85;;;23.80;93.90;;;;;;5030254;28;20034;-68
2023/06/22 10:21:01;;;;;;;11.07;9.85;;;23.80;93.80;;;;;;5028857;28;20048;-68
2023/06/22 10:23:27;;;;;;;11.23;10.13;;;23.80;93.70;;;;;;5021694;28;20139;-70
2023/06/22 10:25:52;;;;;;;14.23;10.48;;;23.80;93.80;;;;;;5028628;28;20022;-64
2023/06/22 10:28:18;;;;;;;11.07;10.10;;;23.80;94.00;;;;;;5022503;28;20131;-67
2023/06/22 10:30:44;;;;;;;15.68;9.93;;;23.80;94.00;;;;;;5019930;28;20029;-68
2023/06/22 10:33:11;;;;;;;15.15;10.25;;;23.80;94.10;;;;;;5021213;28;20121;-69
2023/06/22 10:35:37;;;;;;;30.05;13.10;;;23.80;94.40;;;;;;5033188;28;20033;-70
2023/06/22 10:38:03;;;;;;;13.15;9.90;;;23.80;94.40;;;;;;5030063;28;20025;-66
2023/06/22 10:40:29;;;;;;;12.77;10.32;;;23.80;94.70;;;;;;5033548;28;20030;-68
2023/06/22 10:42:55;;;;;;;12.05;10.90;;;23.80;94.70;;;;;;5033708;28;20490;-68
2023/06/22 10:45:21;;;;;;;14.15;11.50;;;23.80;95.00;;;;;;5034013;28;20025;-68
2023/06/22 10:47:46;;;;;;;11.43;10.18;;;23.80;95.00;;;;;;5032715;28;20037;-68
2023/06/22 10:50:12;;;;;;;12.40;11.20;;;23.80;95.10;;;;;;5028886;28;20025;-67
2023/06/22 10:52:38;;;;;;;13.73;11.98;;;23.80;95.10;;;;;;5028519;28;20083;-65
2023/06/22 10:55:05;;;;;;;14.25;12.75;;;23.80;94.80;;;;;;5033623;28;20048;-69
2023/06/22 10:57:30;;;;;;;12.70;10.98;;;23.80;94.50;;;;;;5034369;28;20030;-68
2023/06/22 10:59:56;;;;;;;11.70;10.20;;;23.80;94.30;;;;;;5033853;28;20044;-68
2023/06/22 11:02:23;;;;;;;12.07;10.77;;;23.80;94.10;;;;;;5028484;28;20025;-66
2023/06/22 11:04:49;;;;;;;16.00;11.30;;;23.80;94.40;;;;;;5033860;28;20116;-67
2023/06/22 11:07:15;;;;;;;14.63;10.65;;;23.80;94.40;;;;;;5031207;28;20120;-68
2023/06/22 11:09:43;;;;;;;14.60;12.18;;;23.80;94.90;;;;;;5033846;28;20029;-71
2023/06/22 11:12:09;;;;;;;16.90;13.13;;;23.70;95.30;;;;;;5015030;28;20087;-70
2023/06/22 11:14:34;;;;;;;15.32;13.73;;;23.70;96.10;;;;;;5028892;28;20063;-69
2023/06/22 11:17:00;;;;;;;17.42;14.68;;;23.70;96.30;;;;;;5016558;28;20015;-70
2023/06/22 11:19:26;;;;;;;17.17;15.30;;;23.80;96.70;;;;;;5027812;28;20034;-71
2023/06/22 11:21:51;;;;;;;17.23;15.52;;;23.70;96.80;;;;;;5028373;28;20029;-70
2023/06/22 11:24:17;;;;;;;19.38;16.23;;;23.70;96.80;;;;;;5030812;28;20318;-71
2023/06/22 11:26:43;;;;;;;15.98;14.18;;;23.70;97.00;;;;;;5030649;28;20017;-71
2023/06/22 11:29:09;;;;;;;15.90;14.27;;;23.70;97.00;;;;;;5032010;28;20176;-72
2023/06/22 11:31:35;;;;;;;14.57;12.73;;;23.60;96.70;;;;;;5029313;28;20021;-71
2023/06/22 11:34:02;;;;;;;13.48;12.18;;;23.60;96.60;;;;;;5021016;28;20030;-70
2023/06/22 11:36:32;;;;;;;14.75;12.52;;;23.60;96.70;;;;;;5028216;28;20029;-70
2023/06/22 11:38:58;;;;;;;16.95;12.93;;;23.70;96.90;;;;;;5030367;28;20033;-72
2023/06/22 11:41:24;;;;;;;13.48;11.45;;;23.60;96.70;;;;;;5029199;28;20398;-70
2023/06/22 11:43:49;;;;;;;13.85;12.35;;;23.60;96.80;;;;;;5021989;28;20038;-72
2023/06/22 11:46:15;;;;;;;15.40;11.70;;;23.60;96.90;;;;;;5028232;28;20529;-72
2023/06/22 11:48:41;;;;;;;11.45;10.32;;;23.60;96.90;;;;;;5029704;28;20034;-71
2023/06/22 11:51:07;;;;;;;11.48;10.38;;;23.60;96.90;;;;;;5024724;28;20021;-72
2023/06/22 11:53:34;;;;;;;12.25;10.05;;;23.50;96.80;;;;;;5030533;28;20177;-71
2023/06/22 11:56:00;;;;;;;12.07;10.50;;;23.60;96.70;;;;;;5013810;28;20032;-71
2023/06/22 11:58:26;;;;;;;12.45;10.43;;;23.60;96.80;;;;;;5025307;28;20152;-71
2023/06/22 12:00:53;;;;;;;13.45;10.05;;;23.60;96.90;;;;;;5026446;28;20109;-72
2023/06/22 12:03:21;;;;;;;10.48;9.40;;;23.50;96.90;;;;;;5010994;28;20492;-70
2023/06/22 12:05:47;;;;;;;11.25;9.52;;;23.50;96.80;;;;;;5028919;28;20037;-72
2023/06/22 12:08:13;;;;;;;9.90;8.82;;;23.50;97.10;;;;;;5032387;28;20494;-71
2023/06/22 12:10:39;;;;;;;10.32;9.15;;;23.60;97.00;;;;;;5031824;28;20099;-71
2023/06/22 12:13:04;;;;;;;10.15;9.15;;;23.60;96.80;;;;;;5029918;28;20465;-69
2023/06/22 12:15:30;;;;;;;11.98;10.13;;;23.60;96.40;;;;;;5013402;28;20026;-70
2023/06/22 12:17:56;;;;;;;13.45;10.95;;;23.50;96.40;;;;;;5025841;28;20033;-66
2023/06/22 12:20:21;;;;;;;13.38;10.55;;;23.60;96.50;;;;;;5028443;28;20108;-68
2023/06/22 12:22:47;;;;;;;12.75;10.52;;;23.50;96.60;;;;;;5031977;28;20033;-69
2023/06/22 12:25:13;;;;;;;14.40;9.85;;;23.50;96.50;;;;;;5031848;28;20022;-69
2023/06/22 12:27:38;;;;;;;11.77;10.57;;;23.50;96.70;;;;;;5026355;28;20477;-70
2023/06/22 12:30:04;;;;;;;10.70;8.57;;;23.60;96.80;;;;;;5025993;28;20535;-69
2023/06/22 12:32:30;;;;;;;12.68;10.32;;;23.60;97.00;;;;;;5026397;28;20029;-70
2023/06/22 12:34:56;;;;;;;14.00;11.48;;;23.50;97.10;;;;;;5029958;28;20054;-70